Time;durP1;ratioP1;P1;durP2;ratioP2;P2;SDS_P1;SDS_P2;PMS_P1;PMS_P2;Temp;Humidity;BMP_temperature;BMP_pressure;BME280_temperature;BME280_humidity;BME280_pressure;Samples;Min_cycle;Max_cycle;Signal;HPM_P1;HPM_P2
2021/07/03 00:01:30;;;;;;;21.55;14.05;;;13.80;99.90;;;;;;5068103;28;20051;-86
2021/07/03 00:03:56;;;;;;;20.58;14.00;;;13.80;99.90;;;;;;5085860;28;20036;-87
2021/07/03 00:06:21;;;;;;;23.10;15.52;;;13.70;99.90;;;;;;5056690;28;20036;-88
2021/07/03 00:08:47;;;;;;;24.95;14.80;;;13.70;99.90;;;;;;5085774;28;20021;-85
2021/07/03 00:11:12;;;;;;;23.58;15.65;;;13.70;99.90;;;;;;5051398;28;20025;-88
2021/07/03 00:13:39;;;;;;;21.40;14.30;;;13.60;99.90;;;;;;5067875;28;20040;-82
2021/07/03 00:16:05;;;;;;;21.55;13.77;;;13.60;99.90;;;;;;5067781;28;20052;-90
2021/07/03 00:18:31;;;;;;;19.77;13.35;;;13.60;99.90;;;;;;5085628;28;20047;-86
2021/07/03 00:20:57;;;;;;;23.75;14.73;;;13.60;99.90;;;;;;5051164;28;20035;-83
2021/07/03 00:23:23;;;;;;;20.52;13.68;;;13.60;99.90;;;;;;5067572;28;20104;-84
2021/07/03 00:25:48;;;;;;;17.98;12.48;;;13.60;99.90;;;;;;5085613;28;20024;-87
2021/07/03 00:28:15;;;;;;;20.23;14.02;;;13.60;99.90;;;;;;5051105;28;20083;-87
2021/07/03 00:30:41;;;;;;;23.15;14.48;;;13.50;99.90;;;;;;5085735;28;20092;-83
2021/07/03 00:33:07;;;;;;;22.70;13.85;;;13.40;99.90;;;;;;5067637;28;20055;-88
2021/07/03 00:35:33;;;;;;;20.95;13.18;;;13.40;99.90;;;;;;5067759;28;20103;-82
2021/07/03 00:38:00;;;;;;;20.05;13.27;;;13.40;99.90;;;;;;5085352;28;20070;-81
2021/07/03 00:40:28;;;;;;;19.77;13.25;;;13.30;99.90;;;;;;5067600;28;20028;-85
2021/07/03 00:42:54;;;;;;;21.98;14.15;;;13.40;99.90;;;;;;5069313;28;20040;-83
2021/07/03 00:45:21;;;;;;;22.80;14.00;;;13.30;99.90;;;;;;5071339;28;20056;-86
2021/07/03 00:47:47;;;;;;;17.77;12.20;;;13.30;99.90;;;;;;5070889;28;20052;-85
2021/07/03 00:50:13;;;;;;;22.08;13.50;;;13.30;99.90;;;;;;5071337;28;20047;-85
2021/07/03 00:52:43;;;;;;;19.95;12.98;;;13.30;99.90;;;;;;5089001;28;20115;-85
2021/07/03 00:55:16;;;;;;;21.27;13.50;;;13.20;99.90;;;;;;5071135;28;20487;-84
2021/07/03 00:57:43;;;;;;;21.13;13.05;;;13.20;99.90;;;;;;5071368;28;20047;-86
2021/07/03 01:00:11;;;;;;;19.23;11.80;;;13.20;99.90;;;;;;5070891;28;20024;-83
2021/07/03 01:02:38;;;;;;;20.55;13.13;;;13.20;99.90;;;;;;5056599;28;20082;-85
2021/07/03 01:05:06;;;;;;;18.42;11.95;;;13.20;99.90;;;;;;5088786;28;20021;-84
2021/07/03 01:07:34;;;;;;;17.92;10.48;;;13.20;99.90;;;;;;5071193;28;20028;-85
2021/07/03 01:10:00;;;;;;;20.58;12.38;;;13.20;99.90;;;;;;5054099;28;20112;-87
2021/07/03 01:12:26;;;;;;;18.35;11.82;;;13.30;99.90;;;;;;5054711;28;20025;-86
2021/07/03 01:14:52;;;;;;;18.98;12.32;;;13.20;99.90;;;;;;5054430;28;20051;-86
2021/07/03 01:17:23;;;;;;;19.13;12.27;;;13.10;99.90;;;;;;5070817;28;20032;-85
2021/07/03 01:19:49;;;;;;;18.77;12.13;;;13.00;99.90;;;;;;5070838;28;20787;-83
2021/07/03 01:22:18;;;;;;;21.27;12.73;;;13.00;99.90;;;;;;5071180;28;20028;-84
2021/07/03 01:24:44;;;;;;;15.95;10.45;;;13.00;99.90;;;;;;5073243;28;20040;-81
2021/07/03 01:27:14;;;;;;;17.42;11.73;;;12.90;99.90;;;;;;5070623;28;20024;-85
2021/07/03 01:29:41;;;;;;;21.08;12.60;;;12.90;99.90;;;;;;5054255;28;20059;-85
2021/07/03 01:32:07;;;;;;;17.23;11.65;;;12.90;99.90;;;;;;5073739;28;20039;-85
2021/07/03 01:34:37;;;;;;;16.88;11.10;;;13.00;99.90;;;;;;5088898;28;20078;-89
2021/07/03 01:37:06;;;;;;;17.42;11.50;;;13.00;99.90;;;;;;5072566;28;20091;-87
2021/07/03 01:39:36;;;;;;;19.90;12.40;;;12.90;99.90;;;;;;5076310;28;20050;-88
2021/07/03 01:42:04;;;;;;;18.63;11.90;;;12.90;99.90;;;;;;5075147;28;20032;-89
2021/07/03 01:44:30;;;;;;;18.88;11.75;;;12.90;99.90;;;;;;5054402;28;20028;-89
2021/07/03 01:46:59;;;;;;;17.33;10.75;;;12.90;99.90;;;;;;5073805;28;20107;-89
2021/07/03 01:49:40;;;;;;;18.23;11.95;;;12.80;99.90;;;;;;5076913;28;20042;-89
2021/07/03 01:52:07;;;;;;;16.48;11.18;;;12.80;99.90;;;;;;5049015;28;20491;-88
2021/07/03 01:54:35;;;;;;;19.33;12.15;;;12.80;99.90;;;;;;5069928;28;20028;-88
2021/07/03 01:57:04;;;;;;;17.63;11.32;;;12.70;99.90;;;;;;5071647;28;20020;-89
2021/07/03 01:59:49;;;;;;;17.70;11.30;;;12.80;99.90;;;;;;5073287;28;20028;-89
2021/07/03 02:02:16;;;;;;;19.50;11.10;;;12.70;99.90;;;;;;5070764;28;20096;-89
2021/07/03 02:04:42;;;;;;;20.33;11.75;;;12.70;99.90;;;;;;5070599;28;20020;-88
2021/07/03 02:07:18;;;;;;;18.65;11.57;;;12.70;99.90;;;;;;5088522;28;20029;-89
2021/07/03 02:09:44;;;;;;;17.35;11.07;;;12.70;99.90;;;;;;5070515;28;20065;-89
2021/07/03 02:12:10;;;;;;;17.92;11.52;;;12.60;99.90;;;;;;5070608;28;20095;-88
2021/07/03 02:15:00;;;;;;;16.05;10.80;;;12.60;99.90;;;;;;5068883;28;20049;-88
2021/07/03 02:17:34;;;;;;;18.15;11.88;;;12.60;99.90;;;;;;5060045;28;20035;-87
2021/07/03 02:20:04;;;;;;;21.83;12.13;;;12.60;99.90;;;;;;5060210;28;20078;-83
2021/07/03 02:23:03;;;;;;;17.90;12.32;;;12.60;99.90;;;;;;5063451;28;20051;-83
2021/07/03 02:25:30;;;;;;;20.17;12.55;;;12.60;99.90;;;;;;5070842;28;20020;-84
2021/07/03 02:28:08;;;;;;;19.48;12.27;;;12.60;99.90;;;;;;5073050;28;20115;-84
2021/07/03 02:30:42;;;;;;;18.33;12.35;;;12.50;99.90;;;;;;5071698;28;20028;-82
2021/07/03 02:33:09;;;;;;;17.88;11.82;;;12.50;99.90;;;;;;5062159;28;20028;-85
2021/07/03 02:35:35;;;;;;;21.70;12.73;;;12.50;99.90;;;;;;5055620;28;20039;-87
2021/07/03 02:38:06;;;;;;;19.58;12.68;;;12.40;99.90;;;;;;5087136;28;20084;-86
2021/07/03 02:40:32;;;;;;;21.35;12.98;;;12.40;99.90;;;;;;5095922;28;20029;-86
2021/07/03 02:42:58;;;;;;;19.33;12.55;;;12.40;99.90;;;;;;5089690;28;20068;-84
2021/07/03 02:45:24;;;;;;;18.02;12.27;;;12.40;99.90;;;;;;5069244;28;20025;-85
2021/07/03 02:47:51;;;;;;;19.08;12.55;;;12.40;99.90;;;;;;5084190;28;20052;-82
2021/07/03 02:50:20;;;;;;;17.27;11.27;;;12.40;99.90;;;;;;5074970;28;20024;-88
2021/07/03 02:52:48;;;;;;;17.40;10.80;;;12.40;99.90;;;;;;5066349;28;20024;-86
2021/07/03 02:55:14;;;;;;;18.85;12.40;;;12.40;99.90;;;;;;5092253;28;20834;-83
2021/07/03 02:57:44;;;;;;;17.75;11.45;;;12.40;99.90;;;;;;5055462;28;20111;-90
2021/07/03 03:00:14;;;;;;;16.40;11.60;;;12.40;99.90;;;;;;5069188;28;20054;-90
2021/07/03 03:02:42;;;;;;;18.65;11.45;;;12.40;99.90;;;;;;5052566;28;20066;-89
2021/07/03 03:05:10;;;;;;;20.17;13.07;;;12.40;99.90;;;;;;5052607;28;20039;-88
2021/07/03 03:07:43;;;;;;;21.95;12.73;;;12.50;99.90;;;;;;5052607;28;20078;-89
2021/07/03 03:10:15;;;;;;;23.42;12.45;;;12.50;99.90;;;;;;5087099;28;20088;-90
2021/07/03 03:12:41;;;;;;;21.17;11.95;;;12.50;99.90;;;;;;5069234;28;20028;-89
2021/07/03 03:15:10;;;;;;;16.23;10.82;;;12.60;99.90;;;;;;5069080;28;20380;-89
2021/07/03 03:17:37;;;;;;;18.55;11.77;;;12.50;99.90;;;;;;5052484;28;20084;-89
2021/07/03 03:20:06;;;;;;;17.65;11.95;;;12.50;99.90;;;;;;5069317;28;20035;-90
2021/07/03 03:22:34;;;;;;;17.63;11.00;;;12.50;99.90;;;;;;5052491;28;20397;-90
2021/07/03 03:25:00;;;;;;;20.52;12.75;;;12.60;99.90;;;;;;5069097;28;20024;-89
2021/07/03 03:27:26;;;;;;;20.00;11.98;;;12.60;99.90;;;;;;5068768;28;20388;-90
2021/07/03 03:29:54;;;;;;;19.05;11.73;;;12.60;99.90;;;;;;5052468;28;20046;-90
2021/07/03 03:32:20;;;;;;;22.40;13.30;;;12.70;99.90;;;;;;5051358;28;20078;-86
2021/07/03 03:34:46;;;;;;;20.48;13.07;;;12.70;99.90;;;;;;5067614;28;20096;-90
2021/07/03 03:37:13;;;;;;;22.55;14.57;;;12.80;99.90;;;;;;5051231;28;20024;-90
2021/07/03 03:39:41;;;;;;;22.23;13.52;;;12.70;99.90;;;;;;5054115;28;20032;-90
2021/07/03 03:42:08;;;;;;;19.77;12.95;;;12.80;99.90;;;;;;5068420;28;20037;-89
2021/07/03 03:44:34;;;;;;;21.05;12.50;;;12.80;99.90;;;;;;5051381;28;20037;-83
2021/07/03 03:47:01;;;;;;;21.65;13.95;;;12.90;99.90;;;;;;5067431;28;20041;-83
2021/07/03 03:49:30;;;;;;;22.67;13.48;;;13.00;99.90;;;;;;5068188;28;20408;-88
2021/07/03 03:51:59;;;;;;;19.75;13.27;;;13.00;99.90;;;;;;5067513;28;20082;-89
2021/07/03 03:54:26;;;;;;;16.88;11.90;;;13.10;99.90;;;;;;5067553;28;20028;-87
2021/07/03 03:57:21;;;;;;;18.75;12.75;;;13.10;99.90;;;;;;5067620;28;20051;-83
2021/07/03 03:59:39;;;;;;;20.70;12.05;;;13.10;99.90;;;;;;5067251;28;20057;-88
2021/07/03 04:02:05;;;;;;;20.30;13.00;;;13.20;99.90;;;;;;5050700;28;20032;-86
2021/07/03 04:04:33;;;;;;;18.83;12.65;;;13.20;99.90;;;;;;5051137;28;20043;-85
2021/07/03 04:06:59;;;;;;;18.20;12.30;;;13.30;99.90;;;;;;5067263;28;20563;-84
2021/07/03 04:09:25;;;;;;;22.55;13.38;;;13.30;99.90;;;;;;5085275;28;20056;-82
2021/07/03 04:11:51;;;;;;;17.52;12.70;;;13.30;99.90;;;;;;5067330;28;20016;-85
2021/07/03 04:14:16;;;;;;;17.13;12.27;;;13.40;99.90;;;;;;5050276;28;20119;-86
2021/07/03 04:16:42;;;;;;;19.50;12.57;;;13.40;99.90;;;;;;5067161;28;20032;-85
2021/07/03 04:19:07;;;;;;;18.17;12.70;;;13.50;99.90;;;;;;5054417;28;20033;-88
2021/07/03 04:21:33;;;;;;;18.60;13.75;;;13.60;99.90;;;;;;5071604;28;20024;-84
2021/07/03 04:23:58;;;;;;;19.17;13.27;;;13.60;99.90;;;;;;5071344;28;20037;-88
2021/07/03 04:26:24;;;;;;;20.10;13.50;;;13.70;99.90;;;;;;5088975;28;20387;-85
2021/07/03 04:28:50;;;;;;;17.75;12.43;;;13.70;99.90;;;;;;5071042;28;20108;-85
2021/07/03 04:31:16;;;;;;;19.48;12.73;;;13.80;99.90;;;;;;5071267;28;20039;-84
2021/07/03 04:33:42;;;;;;;18.92;14.35;;;13.90;99.90;;;;;;5071354;28;20380;-84
2021/07/03 04:36:08;;;;;;;22.75;14.82;;;14.00;99.90;;;;;;5054175;28;20036;-87
2021/07/03 04:38:34;;;;;;;22.20;14.60;;;14.00;99.90;;;;;;5070861;28;20032;-83
2021/07/03 04:41:01;;;;;;;23.40;16.40;;;14.10;99.90;;;;;;5073883;28;20028;-83
2021/07/03 04:43:27;;;;;;;21.80;15.20;;;14.20;99.90;;;;;;5070910;28;20071;-85
2021/07/03 04:45:52;;;;;;;21.23;14.48;;;14.20;99.90;;;;;;5088404;28;20133;-85
2021/07/03 04:48:19;;;;;;;25.08;16.20;;;14.20;99.90;;;;;;5070652;28;20403;-88
2021/07/03 04:51:32;;;;;;;;;;;14.20;99.90;;;;;;5054696;28;20031;-84
2021/07/03 04:54:22;;;;;;;23.17;15.25;;;14.20;99.90;;;;;;5072552;28;19919;-86
2021/07/03 04:56:48;;;;;;;22.98;15.15;;;14.30;99.90;;;;;;5054330;28;20029;-88
2021/07/03 04:59:15;;;;;;;24.42;15.25;;;14.30;99.90;;;;;;5070582;28;20036;-88
2021/07/03 05:01:41;;;;;;;24.60;16.40;;;14.40;99.90;;;;;;5054407;28;20039;-89
2021/07/03 05:04:07;;;;;;;24.92;16.05;;;14.50;99.90;;;;;;5088388;28;20044;-87
2021/07/03 05:06:32;;;;;;;24.25;15.70;;;14.60;99.90;;;;;;5071039;28;20033;-88
2021/07/03 05:08:58;;;;;;;24.17;16.65;;;14.70;99.90;;;;;;5070943;28;20024;-88
2021/07/03 05:11:24;;;;;;;25.15;16.73;;;14.80;99.90;;;;;;5070944;28;20407;-87
2021/07/03 05:13:49;;;;;;;22.83;16.85;;;14.90;99.90;;;;;;5070996;28;20044;-88
2021/07/03 05:16:15;;;;;;;24.77;16.52;;;14.80;99.90;;;;;;5056438;28;20037;-87
2021/07/03 05:18:42;;;;;;;22.50;15.25;;;14.80;99.90;;;;;;5070995;28;20024;-87
2021/07/03 05:21:07;;;;;;;24.85;15.65;;;14.70;99.90;;;;;;5088372;28;20052;-86
2021/07/03 05:23:33;;;;;;;24.33;16.00;;;14.70;99.90;;;;;;5053696;28;20049;-87
2021/07/03 05:25:59;;;;;;;26.45;16.30;;;14.70;99.90;;;;;;5070022;28;20044;-86
2021/07/03 05:28:25;;;;;;;22.65;16.30;;;14.80;99.90;;;;;;5087197;28;20103;-82
2021/07/03 05:30:52;;;;;;;23.00;14.40;;;14.80;99.90;;;;;;5086998;28;20020;-85
2021/07/03 05:33:18;;;;;;;29.08;19.45;;;14.90;99.90;;;;;;5090643;28;20063;-84
2021/07/03 05:35:44;;;;;;;27.98;17.77;;;15.10;99.90;;;;;;5072415;28;20031;-84
2021/07/03 05:38:11;;;;;;;25.50;17.30;;;15.10;99.90;;;;;;5069739;28;20480;-84
2021/07/03 05:40:37;;;;;;;21.95;16.35;;;15.10;99.90;;;;;;5050879;28;20100;-81
2021/07/03 05:43:02;;;;;;;24.77;17.33;;;15.10;99.90;;;;;;5052879;28;20036;-85
2021/07/03 05:45:28;;;;;;;23.98;16.25;;;15.30;99.90;;;;;;5087216;28;20026;-83
2021/07/03 05:47:53;;;;;;;25.10;17.35;;;15.40;99.90;;;;;;5066014;28;20072;-84
2021/07/03 05:50:26;;;;;;;22.52;15.63;;;15.50;99.90;;;;;;5079168;28;20036;-83
2021/07/03 05:52:54;;;;;;;22.33;15.77;;;15.70;99.90;;;;;;5069685;28;20029;-85
2021/07/03 05:55:21;;;;;;;23.58;17.00;;;15.90;99.90;;;;;;5069180;28;20538;-85
2021/07/03 05:57:47;;;;;;;22.25;14.93;;;16.20;99.90;;;;;;5069457;28;20074;-84
2021/07/03 06:00:14;;;;;;;24.40;16.80;;;16.40;99.90;;;;;;5069260;28;20036;-82
2021/07/03 06:02:43;;;;;;;23.77;16.40;;;16.70;99.90;;;;;;5087101;28;20127;-85
2021/07/03 06:05:09;;;;;;;26.92;17.23;;;17.00;99.90;;;;;;5069411;28;20048;-82
2021/07/03 06:07:36;;;;;;;23.17;16.83;;;17.10;99.90;;;;;;5087376;28;20063;-86
2021/07/03 06:10:02;;;;;;;21.08;15.43;;;17.30;99.90;;;;;;5087540;28;20023;-87
2021/07/03 06:12:28;;;;;;;20.92;13.95;;;17.50;99.90;;;;;;5087316;28;20461;-85
2021/07/03 06:14:54;;;;;;;22.08;15.02;;;17.60;99.90;;;;;;5071796;28;20050;-84
2021/07/03 06:17:21;;;;;;;22.95;15.65;;;17.40;99.90;;;;;;5068972;28;20028;-85
2021/07/03 06:19:48;;;;;;;24.50;15.55;;;17.50;99.90;;;;;;5069040;28;20028;-87
2021/07/03 06:22:14;;;;;;;22.90;15.75;;;17.70;99.90;;;;;;5086925;28;20033;-87
2021/07/03 06:24:41;;;;;;;21.55;14.93;;;18.10;99.90;;;;;;5089381;28;20131;-83
2021/07/03 06:27:08;;;;;;;22.95;16.55;;;18.20;99.90;;;;;;5084246;28;20020;-85
2021/07/03 06:29:37;;;;;;;22.85;16.02;;;18.20;99.90;;;;;;5069154;28;20036;-84
2021/07/03 06:32:05;;;;;;;22.90;15.65;;;18.30;99.90;;;;;;5068723;28;20028;-85
2021/07/03 06:34:32;;;;;;;24.45;17.00;;;18.50;99.90;;;;;;5068672;28;20056;-86
2021/07/03 06:36:58;;;;;;;22.05;15.32;;;18.50;99.90;;;;;;5068589;28;20024;-85
2021/07/03 06:39:27;;;;;;;21.40;15.90;;;18.50;99.90;;;;;;5052165;28;20039;-88
2021/07/03 06:41:52;;;;;;;23.80;17.23;;;18.40;99.90;;;;;;5068157;28;20549;-87
2021/07/03 06:44:18;;;;;;;24.00;16.95;;;18.30;99.90;;;;;;5068605;28;20033;-84
2021/07/03 06:46:46;;;;;;;25.17;17.90;;;18.50;99.90;;;;;;5071235;28;20096;-90
2021/07/03 06:49:12;;;;;;;28.42;18.65;;;18.50;99.90;;;;;;5067466;28;20048;-92
2021/07/03 06:51:38;;;;;;;24.77;17.00;;;18.60;99.90;;;;;;5085681;28;20016;-89
2021/07/03 06:54:05;;;;;;;26.58;17.48;;;18.80;99.90;;;;;;5050993;28;20107;-90
2021/07/03 06:56:31;;;;;;;29.40;18.10;;;19.10;99.90;;;;;;5084725;28;20074;-92
2021/07/03 06:58:57;;;;;;;26.40;17.08;;;19.40;99.90;;;;;;5051179;28;20465;-92
2021/07/03 07:01:22;;;;;;;19.83;14.70;;;19.60;99.90;;;;;;5067810;28;20517;-87
2021/07/03 07:03:48;;;;;;;25.13;16.88;;;19.80;99.90;;;;;;5067707;28;20040;-88
2021/07/03 07:06:17;;;;;;;24.08;17.65;;;20.10;99.90;;;;;;5067322;28;20033;-87
2021/07/03 07:08:43;;;;;;;26.80;17.00;;;19.80;99.90;;;;;;5066416;28;20036;-86
2021/07/03 07:11:11;;;;;;;23.77;15.48;;;19.80;99.90;;;;;;5062905;28;20040;-88
2021/07/03 07:13:37;;;;;;;21.20;15.05;;;20.20;99.90;;;;;;5063053;28;20059;-90
2021/07/03 07:16:03;;;;;;;21.00;14.25;;;20.50;99.90;;;;;;5052586;28;20029;-94
2021/07/03 07:18:31;;;;;;;18.77;13.77;;;20.50;99.90;;;;;;5051698;28;20571;-92
2021/07/03 07:20:57;;;;;;;18.52;12.82;;;20.70;99.90;;;;;;5051480;28;20028;-92
2021/07/03 07:23:23;;;;;;;20.05;14.82;;;21.00;99.90;;;;;;5051528;28;20067;-92
2021/07/03 07:25:50;;;;;;;18.55;13.98;;;21.00;99.90;;;;;;5051261;28;20032;-93
2021/07/03 07:28:21;;;;;;;15.45;11.50;;;21.00;99.90;;;;;;5051550;28;20032;-93
2021/07/03 07:30:46;;;;;;;16.33;11.77;;;21.30;99.90;;;;;;5086217;28;20153;-94
2021/07/03 07:33:12;;;;;;;17.20;12.00;;;21.40;99.90;;;;;;5051261;28;20071;-94
2021/07/03 07:35:38;;;;;;;16.58;12.00;;;21.60;99.90;;;;;;5051259;28;20115;-93
2021/07/03 07:38:08;;;;;;;16.90;11.85;;;21.50;99.90;;;;;;5051085;28;20103;-94
2021/07/03 07:40:33;;;;;;;17.83;12.00;;;21.70;99.90;;;;;;5067984;28;20043;-93
2021/07/03 07:42:59;;;;;;;17.20;12.07;;;21.80;99.90;;;;;;5050728;28;20048;-91
2021/07/03 07:45:25;;;;;;;15.40;10.38;;;21.90;99.90;;;;;;5050690;28;20028;-92
2021/07/03 07:47:50;;;;;;;14.57;10.27;;;22.00;99.90;;;;;;4541436;28;15030285;-94
2021/07/03 07:50:16;;;;;;;15.30;9.68;;;22.20;99.90;;;;;;5068887;28;20029;-82
2021/07/03 07:52:41;;;;;;;13.65;8.18;;;22.50;99.90;;;;;;5049762;28;20059;-85
2021/07/03 07:55:08;;;;;;;12.63;8.52;;;22.80;99.90;;;;;;5048080;28;20028;-83
2021/07/03 07:57:35;;;;;;;11.80;8.40;;;22.80;99.90;;;;;;5057835;28;20187;-86
2021/07/03 08:00:00;;;;;;;13.38;9.43;;;22.70;99.90;;;;;;5061921;28;20032;-87
2021/07/03 08:02:26;;;;;;;11.32;8.80;;;22.90;99.90;;;;;;5065285;28;20043;-84
2021/07/03 08:04:51;;;;;;;13.10;9.50;;;22.90;99.90;;;;;;5050488;28;20119;-85
2021/07/03 08:07:18;;;;;;;11.70;8.35;;;23.00;99.90;;;;;;5051005;28;20020;-84
2021/07/03 08:09:44;;;;;;;15.70;10.07;;;23.30;99.90;;;;;;5067368;28;20029;-84
2021/07/03 08:12:12;;;;;;;14.13;9.43;;;23.50;99.90;;;;;;5046744;28;20032;-85
2021/07/03 08:14:38;;;;;;;11.82;8.90;;;23.40;99.90;;;;;;5046926;28;20029;-84
2021/07/03 08:17:04;;;;;;;12.90;8.90;;;23.70;99.90;;;;;;5046817;28;20029;-86
2021/07/03 08:19:29;;;;;;;14.93;10.70;;;23.80;99.90;;;;;;5063425;28;20140;-84
2021/07/03 08:21:58;;;;;;;16.92;12.23;;;23.90;99.90;;;;;;5079708;28;20028;-82
2021/07/03 08:24:24;;;;;;;13.13;9.75;;;23.50;99.90;;;;;;5066639;28;20036;-82
2021/07/03 08:26:50;;;;;;;13.43;10.10;;;24.00;99.90;;;;;;5084502;28;20032;-82
2021/07/03 08:29:16;;;;;;;14.30;10.95;;;24.20;99.90;;;;;;5046395;28;20037;-82
2021/07/03 08:31:41;;;;;;;12.80;9.85;;;23.90;99.90;;;;;;5049481;28;20043;-83
2021/07/03 08:34:07;;;;;;;11.65;8.23;;;24.00;99.90;;;;;;5051150;28;20032;-85
2021/07/03 08:36:32;;;;;;;11.88;8.00;;;24.00;99.90;;;;;;5069864;28;20024;-84
2021/07/03 08:38:58;;;;;;;11.00;8.73;;;24.40;99.90;;;;;;5086942;28;20033;-83
2021/07/03 08:41:25;;;;;;;11.20;8.48;;;24.50;99.90;;;;;;5078549;28;20031;-83
2021/07/03 08:43:50;;;;;;;10.25;7.25;;;24.50;99.90;;;;;;5049529;28;20041;-84
2021/07/03 08:49:34;;;;;;;11.23;8.55;;;24.70;99.90;;;;;;4694307;22;20075;-83
2021/07/03 08:51:59;;;;;;;10.77;8.48;;;24.80;99.90;;;;;;5065905;28;20032;-85
2021/07/03 08:54:25;;;;;;;10.68;7.30;;;24.80;99.90;;;;;;5067257;28;20033;-83
2021/07/03 08:56:51;;;;;;;11.63;5.78;;;24.50;99.90;;;;;;5066983;28;20058;-83
2021/07/03 08:59:21;;;;;;;8.48;7.28;;;24.80;99.90;;;;;;5046016;28;20101;-85
2021/07/03 09:01:51;;;;;;;8.80;7.05;;;24.90;99.90;;;;;;5065978;28;20028;-82
2021/07/03 09:04:17;;;;;;;8.75;7.63;;;25.10;99.90;;;;;;5067286;28;20041;-84
2021/07/03 09:06:43;;;;;;;9.55;6.95;;;25.10;99.90;;;;;;5068971;28;20048;-82
2021/07/03 09:09:08;;;;;;;7.30;5.30;;;24.90;99.90;;;;;;5052853;28;20036;-82
2021/07/03 09:11:34;;;;;;;7.35;5.47;;;25.10;99.90;;;;;;5052891;28;20088;-82
2021/07/03 09:14:07;;;;;;;10.63;6.20;;;25.00;99.90;;;;;;5068791;28;20034;-81
2021/07/03 09:16:35;;;;;;;9.18;7.38;;;25.40;99.90;;;;;;5052133;28;20029;-81
2021/07/03 09:19:03;;;;;;;7.60;6.18;;;25.10;99.90;;;;;;5069126;28;20618;-82
2021/07/03 09:21:31;;;;;;;6.93;5.07;;;25.00;99.90;;;;;;5069756;28;20036;-83
2021/07/03 09:23:59;;;;;;;6.18;4.35;;;25.40;99.90;;;;;;5069664;28;20040;-84
2021/07/03 09:26:25;;;;;;;6.85;3.95;;;25.70;99.90;;;;;;5068507;28;20025;-82
2021/07/03 09:28:51;;;;;;;7.47;5.28;;;25.70;99.90;;;;;;5051578;28;20547;-82
2021/07/03 09:31:19;;;;;;;6.05;4.10;;;25.80;99.90;;;;;;5085306;28;20039;-82
2021/07/03 09:33:53;;;;;;;6.90;4.47;;;25.50;99.90;;;;;;5050545;28;20033;-81
2021/07/03 09:36:28;;;;;;;6.43;4.53;;;25.50;99.90;;;;;;5052056;28;20099;-83
2021/07/03 09:38:56;;;;;;;4.93;3.53;;;25.40;99.90;;;;;;5051276;28;20043;-84
2021/07/03 09:41:25;;;;;;;4.55;3.70;;;25.50;99.90;;;;;;5032892;28;20025;-83
2021/07/03 09:43:51;;;;;;;5.65;4.43;;;25.80;99.90;;;;;;5049054;28;20068;-83
2021/07/03 09:46:41;;;;;;;6.25;4.20;;;26.00;99.90;;;;;;5049438;28;20107;-83
2021/07/03 09:49:15;;;;;;;3.90;3.15;;;25.90;99.90;;;;;;4988882;28;20106;-83
2021/07/03 09:51:46;;;;;;;5.43;4.10;;;26.20;99.90;;;;;;4973074;28;20063;-84
2021/07/03 09:54:13;;;;;;;5.65;3.65;;;26.40;99.90;;;;;;4977228;28;20128;-83
2021/07/03 09:56:41;;;;;;;3.53;3.08;;;26.60;99.90;;;;;;4992327;28;20088;-84
2021/07/03 09:59:07;;;;;;;4.70;3.22;;;26.40;99.90;;;;;;4992361;28;20033;-84
2021/07/03 10:01:33;;;;;;;6.07;2.80;;;26.20;99.90;;;;;;5008527;28;20069;-84
2021/07/03 10:04:02;;;;;;;6.65;3.80;;;26.60;99.90;;;;;;5008258;28;20049;-83
2021/07/03 10:06:51;;;;;;;4.97;3.28;;;26.80;99.90;;;;;;4991882;28;20037;-83
2021/07/03 10:09:25;;;;;;;4.97;3.60;;;26.30;99.90;;;;;;4992319;28;20119;-84
2021/07/03 10:11:55;;;;;;;6.22;4.03;;;26.40;99.90;;;;;;5024633;28;20051;-82
2021/07/03 10:14:21;;;;;;;6.07;3.40;;;27.00;99.90;;;;;;5025275;28;20053;-84
2021/07/03 10:16:47;;;;;;;6.07;3.33;;;26.90;99.90;;;;;;4993003;28;20040;-83
2021/07/03 10:19:14;;;;;;;5.80;4.22;;;27.30;99.90;;;;;;5006144;28;20074;-84
2021/07/03 10:21:42;;;;;;;5.13;3.55;;;26.50;99.90;;;;;;4990623;28;20025;-84
2021/07/03 10:24:21;;;;;;;4.20;2.70;;;26.40;99.90;;;;;;5023450;28;20045;-83
2021/07/03 10:26:50;;;;;;;3.33;2.47;;;27.20;99.90;;;;;;5037969;28;20404;-83
2021/07/03 10:29:22;;;;;;;3.35;2.45;;;27.20;99.90;;;;;;5068711;28;20086;-83
2021/07/03 10:31:49;;;;;;;5.28;2.75;;;27.10;99.90;;;;;;5051740;28;20056;-83
2021/07/03 10:34:25;;;;;;;4.72;2.83;;;26.90;99.90;;;;;;5086239;28;20032;-83
2021/07/03 10:37:04;;;;;;;5.20;3.75;;;27.40;99.90;;;;;;5068351;28;20043;-82
2021/07/03 10:39:32;;;;;;;3.90;2.60;;;27.40;99.90;;;;;;5068346;28;20392;-82
2021/07/03 10:41:57;;;;;;;3.95;2.33;;;27.30;99.90;;;;;;5068260;28;20036;-84
2021/07/03 10:44:23;;;;;;;4.53;2.53;;;26.80;99.90;;;;;;5086079;28;20044;-84
2021/07/03 10:46:51;;;;;;;5.03;2.42;;;26.80;99.90;;;;;;5051407;28;20028;-83
2021/07/03 10:49:30;;;;;;;3.20;1.95;;;26.80;99.90;;;;;;5085783;28;20060;-84
2021/07/03 10:51:55;;;;;;;4.38;3.00;;;27.00;99.90;;;;;;5051228;28;20025;-83
2021/07/03 10:54:29;;;;;;;6.88;2.67;;;27.40;99.90;;;;;;5050893;28;20025;-83
2021/07/03 10:57:05;;;;;;;4.30;3.38;;;27.50;99.90;;;;;;5067771;28;20059;-83
2021/07/03 10:59:34;;;;;;;5.78;2.92;;;27.10;99.90;;;;;;5067828;28;20037;-83
2021/07/03 11:02:16;;;;;;;3.10;2.80;;;26.50;99.90;;;;;;5067801;28;20423;-83
2021/07/03 11:04:53;;;;;;;5.05;2.58;;;26.70;99.90;;;;;;5067834;28;20036;-84
2021/07/03 11:07:26;;;;;;;5.68;3.25;;;27.10;99.90;;;;;;5067540;28;20048;-84
2021/07/03 11:10:02;;;;;;;3.50;2.13;;;27.40;99.90;;;;;;5050874;28;20448;-84
2021/07/03 11:12:28;;;;;;;3.58;2.80;;;27.80;99.90;;;;;;5051013;28;20032;-83
2021/07/03 11:14:56;;;;;;;4.53;3.42;;;27.60;99.90;;;;;;5050755;28;20036;-84
2021/07/03 11:17:24;;;;;;;4.22;2.13;;;27.80;99.90;;;;;;5050642;28;20044;-83
2021/07/03 11:19:52;;;;;;;4.13;2.08;;;27.20;99.90;;;;;;5050828;28;20052;-83
2021/07/03 11:22:24;;;;;;;3.35;1.98;;;27.40;99.90;;;;;;5067334;28;20040;-83
2021/07/03 11:24:55;;;;;;;3.95;2.17;;;27.80;99.90;;;;;;5067193;28;20052;-83
2021/07/03 11:27:31;;;;;;;4.78;3.15;;;27.70;99.90;;;;;;5085300;28;20032;-85
2021/07/03 11:29:59;;;;;;;3.25;2.33;;;27.00;99.90;;;;;;5067543;28;20488;-84
2021/07/03 11:32:25;;;;;;;3.95;2.17;;;27.50;99.90;;;;;;5050774;28;20035;-84
2021/07/03 11:34:53;;;;;;;3.47;2.03;;;28.40;99.90;;;;;;5067340;28;20078;-84
2021/07/03 11:37:37;;;;;;;4.10;2.45;;;28.50;99.90;;;;;;5067332;28;20092;-84
2021/07/03 11:40:25;;;;;;;3.40;2.17;;;27.70;99.90;;;;;;5050658;28;20051;-84
2021/07/03 11:42:53;;;;;;;3.75;1.33;;;27.90;99.90;;;;;;5050507;28;20036;-84
2021/07/03 11:45:22;;;;;;;2.55;1.42;;;27.90;99.90;;;;;;5067295;28;20039;-84
2021/07/03 11:47:51;;;;;;;5.07;1.60;;;28.00;99.90;;;;;;5066886;28;20035;-84
2021/07/03 11:50:26;;;;;;;3.38;1.85;;;28.00;99.90;;;;;;5066764;28;20059;-81
2021/07/03 11:52:54;;;;;;;3.05;2.10;;;27.40;99.90;;;;;;5050470;28;20036;-82
2021/07/03 11:55:25;;;;;;;2.63;1.70;;;27.30;99.90;;;;;;5066604;28;20084;-83
2021/07/03 11:57:51;;;;;;;1.95;1.55;;;27.80;99.90;;;;;;5085016;28;20078;-83
2021/07/03 12:00:29;;;;;;;3.22;2.00;;;27.90;99.90;;;;;;5066801;28;20123;-83
2021/07/03 12:02:57;;;;;;;3.88;1.88;;;27.90;99.90;;;;;;5065769;28;20040;-84
2021/07/03 12:05:34;;;;;;;2.65;1.73;;;27.70;99.90;;;;;;5066794;28;20035;-84
2021/07/03 12:08:05;;;;;;;3.42;0.82;;;27.80;99.90;;;;;;5066883;28;20036;-83
2021/07/03 12:10:45;;;;;;;2.50;1.35;;;28.30;99.90;;;;;;5050084;28;20416;-84
2021/07/03 12:13:22;;;;;;;3.92;2.13;;;27.80;99.90;;;;;;5066836;28;20036;-83
2021/07/03 12:16:12;;;;;;;2.35;1.40;;;27.40;99.90;;;;;;5066587;28;20083;-81
2021/07/03 12:18:46;;;;;;;3.17;1.40;;;28.10;99.90;;;;;;5066833;28;20507;-83
2021/07/03 12:21:20;;;;;;;3.22;1.00;;;28.40;99.90;;;;;;5049871;28;20048;-83
2021/07/03 12:23:45;;;;;;;2.28;1.95;;;28.10;99.90;;;;;;5084597;28;20060;-83
2021/07/03 12:26:11;;;;;;;3.45;1.20;;;27.70;99.90;;;;;;5050141;28;20047;-83
2021/07/03 12:28:38;;;;;;;2.65;1.40;;;27.50;99.90;;;;;;5066650;28;20033;-84
2021/07/03 12:31:06;;;;;;;3.00;1.85;;;27.50;99.90;;;;;;5066655;28;20035;-83
2021/07/03 12:33:33;;;;;;;2.33;1.15;;;27.10;99.90;;;;;;5066674;28;20028;-82
2021/07/03 12:35:58;;;;;;;2.10;1.38;;;27.50;99.90;;;;;;5050073;28;20025;-82
2021/07/03 12:38:26;;;;;;;2.80;1.80;;;27.30;99.90;;;;;;5067844;28;20082;-82
2021/07/03 12:40:52;;;;;;;2.92;1.85;;;26.50;99.90;;;;;;5071095;28;20036;-83
2021/07/03 12:43:18;;;;;;;4.38;2.78;;;26.30;99.90;;;;;;5072033;28;20055;-82